Wailuku, HI

10:23 PM HST on February 13, 2016 (GMT -1000)
Upper West Waiko Road | | Change Station
CLOSE
Current Station
Personal Weather Station
Location: Wailuku, HI
Elevation: 659 ft
Nearby Weather Stations
Active Advisory: High Surf Advisory Active Notice: Record Report

Elev 659 ft 20.86 °N, 156.51 °W | Updated 29 seconds ago

Scattered Clouds
Scattered Clouds
70.3 °F
Feels Like 71 °F
N
1.8
Wind Variable Wind from North
Gusts 2.5 mph

Today
High -- | Low -- °F
--% Chance of Precip.
Yesterday
High -- | Low -- °F
Precip. -- in
Pressure 30.08 in
Visibility 10.0 miles
Clouds Scattered Clouds 5000 ft
Heat Index 71 °F
Dew Point 64 °F
Humidity 80%
Rainfall 0.00 in
Snow Depth Not available.
6:57 AM 6:23 PM
Waxing Crescent, 39% visible
METAR PHOG 140754Z 00000KT 10SM SCT050 22/19 A3007 RMK AO2 SLP186 T02220189 $
Pressure 30.08 in
Visibility 10.0 miles
Clouds Scattered Clouds 5000 ft
Heat Index 71 °F
Dew Point 64 °F
Humidity 80%
Rainfall 0.00 in
Snow Depth Not available.
6:57 AM 6:23 PM
Waxing Crescent, 39% visible
METAR PHOG 140754Z 00000KT 10SM SCT050 22/19 A3007 RMK AO2 SLP186 T02220189 $

10-Day Weather Forecast

Almanac

Astronomy

Feb. 13, 2016 Rise Set
Actual Time
Civil Twilight
Nautical Twilight
Astronomical Twilight
Moon
Length of Visible Light
Length of Day
Tomorrow will be .
, % of the Moon is Illuminated

Today's Extremes

State Highs State Lows

Community

WunderPhotos

Upload Photos

1,892,757 photos uploaded!

WunderBlog® & News

Nearby

Air Quality

  Air Quality AQ Index Pollutant
Not available.

Snow Depth

Station Depth Elevation

Earthquake Activity

City Distance Mag. Time & Date
Minimum magnitude displayed is 2.5.

Coastal Water Temperatures

Place Temperature

Stations

Nearby Weather Stations

Station Location Temp. Windchill Dew Point Humidity Wind Precip. Elev Updated Type
                   

Watches & Warnings

High Surf Advisory
Issued: 3:20 PM HST Feb. 13, 2016 – National Weather Service

... High surf advisory in effect from 6 am Sunday to 6 PM HST
Monday...

The National Weather Service in Honolulu has issued a high surf
advisory... which is in effect from 6 am Sunday to 6 PM HST
Monday.

* Surf... north and west facing shores of Kauai... 14 to 18 feet. North
facing shores of Oahu Molokai and Maui... 10 to 14 feet Sunday
morning building to 14 to 18 feet Sunday afternoon. West facing
shores of Oahu and Molokai... 5 to 8 feet Sunday morning building
to 8 to 12 feet Sunday afternoon.

* Timing... Sunday morning through Monday for Kauai and Niihau.
Sunday afternoon through Monday for Oahu Molokai and Maui.

* Impacts... moderate... expect strong breaking waves... shore
break... and strong longshore and rip currents making swimming
difficult and dangerous.

Precautionary/preparedness actions...
beachgoers... swimmers... and surfers should heed all advice given
by ocean safety officials and exercise caution.



Foster